Forside
METAR-TAF:

METAR-TAF

Lufthavne :

Jakutsk, Rusland

Breddekreds: 62-01N, længdekreds: 129-43E, højde: 103 m

Aktuelle vejr

Denne rapport blev lavet for 52 minutter siden, kl. 10:30 UTC
Vind stille
Temperatur -5°C
Fugtighed 93%
Tryk 1019 hPa
Sigt: 5000 m
Brudte skyer i en højde af 900 ft
let sne

METAR: UEEE 171030Z 00000MPS 5000 -SN BKN009 M05/M06 Q1019 R23L/420050 NOSIG RMK QFE756

Tid: 20:22 (11:22 UTC)

Vejrudsigter

Denne rapport blev lavet for 3 timer og 22 minutter siden, kl. 08:00 UTC
Foreløbig gælder fra 17 på 09 UTC til 18 på 15 UTC
Vind 2 kt fra varierende retninger
Sigt 10 km eller mere
Spredte skyer i en højde af 1000 ft
Brudte skyer i en højde af 2000 ft, Cumulonimbus.
Overskyet i en højde af 7000 ft
let snebyger
Midlertidig
fra 17 på 09 UTC til 17 på 15 UTC
Sigt: 2100 m
let snebyger, regn
Midlertidig
fra 17 på 15 UTC til 18 på 02 UTC
Sigt: 0300 m
i en højde af 200 ft
snebyger, rimtåge

TAF: UEEE 170800Z 1709/1815 VRB01MPS 9999 -SHSN SCT010 BKN020CB OVC070 TEMPO 1709/1715 2100 -SHSNRA TEMPO 1715/1802 0300 SHSN FZFG VV002

Vejrobservationer og prognoser fra mere end 4000 lufthavne (METAR og TAF).

De gule og røde prikker repræsenterer de meteorologiske stationer.

Flyt musen over at se navnet på stationen.

Så klik over at se vejr observationer og prognoser.

At skifte det kort: Klik på de grønne knapper med et sort kors for at zoome ind; på den grønne knap med en bindestreg for at zoome ud; eller på de grønne pile for tilstødende kort.


METAR-TAF: